createdAt,value
2019-01-11T00:00:27.592Z,1.99
2019-01-11T00:02:29.022Z,1.83
2019-01-11T00:04:30.409Z,1.73
2019-01-11T00:06:31.792Z,1.85
2019-01-11T00:08:33.220Z,1.89
2019-01-11T00:10:34.603Z,1.73
2019-01-11T00:12:35.975Z,1.71
2019-01-11T00:14:37.409Z,1.72
2019-01-11T00:16:38.777Z,1.76
2019-01-11T00:18:40.136Z,1.80
2019-01-11T00:20:41.680Z,1.65
2019-01-11T00:22:43.075Z,1.71
2019-01-11T00:24:44.460Z,1.86
2019-01-11T00:26:45.967Z,2.03
2019-01-11T00:28:47.561Z,1.88
2019-01-11T00:30:48.952Z,1.94
2019-01-11T00:32:50.374Z,1.78
2019-01-11T00:34:51.757Z,1.74
2019-01-11T00:36:53.146Z,1.70
2019-01-11T00:38:54.596Z,1.69
2019-01-11T00:40:55.989Z,1.80
2019-01-11T00:42:57.473Z,1.96
2019-01-11T00:44:58.883Z,2.03
2019-01-11T00:47:00.497Z,1.94
2019-01-11T00:49:01.887Z,1.66
2019-01-11T00:51:03.390Z,1.73
2019-01-11T00:53:04.960Z,1.76
2019-01-11T00:55:07.419Z,1.82
2019-01-11T00:57:08.804Z,2.03
2019-01-11T00:59:10.236Z,2.07
2019-01-11T01:01:12.130Z,2.04
2019-01-11T01:03:13.508Z,1.94
2019-01-11T01:05:15.078Z,1.99
2019-01-11T01:07:17.152Z,2.02
2019-01-11T01:09:18.741Z,1.84
2019-01-11T01:11:20.202Z,1.86
2019-01-11T01:13:21.620Z,1.69
2019-01-11T01:15:23.011Z,1.88
2019-01-11T01:17:24.407Z,1.95
2019-01-11T01:19:25.812Z,1.84
2019-01-11T01:21:27.174Z,1.85
2019-01-11T01:23:28.546Z,2.03
2019-01-11T01:25:31.006Z,2.01
2019-01-11T01:27:32.369Z,1.93
2019-01-11T01:29:33.844Z,1.86
2019-01-11T01:31:35.474Z,1.81
2019-01-11T01:33:36.901Z,1.90
2019-01-11T01:35:38.325Z,1.81
2019-01-11T01:37:39.776Z,1.78
2019-01-11T01:39:41.132Z,1.89
2019-01-11T01:41:42.503Z,1.98
2019-01-11T01:43:43.959Z,1.98
2019-01-11T01:45:45.426Z,1.94
2019-01-11T01:47:46.963Z,1.93
2019-01-11T01:49:48.401Z,1.89
2019-01-11T01:51:49.767Z,1.93
2019-01-11T01:53:51.184Z,1.91
2019-01-11T01:55:52.578Z,1.89
2019-01-11T01:57:54.219Z,1.82
2019-01-11T01:59:55.920Z,1.87
2019-01-11T02:01:57.318Z,1.90
2019-01-11T02:03:58.683Z,1.83
2019-01-11T02:06:00.107Z,1.80
2019-01-11T02:08:01.475Z,1.78
2019-01-11T02:10:07.714Z,1.80
2019-01-11T02:12:09.096Z,1.81
2019-01-11T02:14:10.465Z,1.81
2019-01-11T02:16:12.008Z,1.78
2019-01-11T02:18:13.389Z,1.80
2019-01-11T02:20:16.171Z,1.78
2019-01-11T02:22:17.626Z,1.85
2019-01-11T02:24:18.999Z,1.85
2019-01-11T02:26:20.438Z,1.89
2019-01-11T02:28:21.820Z,1.86
2019-01-11T02:30:23.200Z,1.76
2019-01-11T02:32:24.849Z,1.95
2019-01-11T02:34:26.229Z,1.93
2019-01-11T02:36:27.715Z,1.84
2019-01-11T02:38:29.410Z,1.99
2019-01-11T02:40:30.785Z,2.02
2019-01-11T02:42:32.160Z,1.78
2019-01-11T02:44:33.588Z,1.82
2019-01-11T02:46:34.972Z,1.91
2019-01-11T02:48:36.463Z,1.84
2019-01-11T02:50:37.861Z,1.81
2019-01-11T02:52:39.253Z,1.96
2019-01-11T02:54:40.706Z,1.93
2019-01-11T02:56:42.059Z,1.83
2019-01-11T02:58:43.422Z,1.80
2019-01-11T03:00:44.872Z,1.84
2019-01-11T03:02:46.645Z,1.83
2019-01-11T03:04:48.040Z,1.82
2019-01-11T03:06:49.726Z,1.79
2019-01-11T03:08:51.130Z,1.80
2019-01-11T03:10:53.194Z,1.85
2019-01-11T03:12:54.772Z,1.87
2019-01-11T03:14:56.156Z,1.81
2019-01-11T03:16:57.529Z,1.88
2019-01-11T03:18:59.196Z,1.82
2019-01-11T03:21:00.674Z,1.76
2019-01-11T03:23:02.053Z,1.95
2019-01-11T03:25:06.708Z,1.83
2019-01-11T03:27:08.081Z,1.88
2019-01-11T03:29:09.461Z,1.86
2019-01-11T03:31:13.074Z,1.84
2019-01-11T03:33:14.464Z,1.78
2019-01-11T03:35:17.065Z,2.00
2019-01-11T03:37:18.638Z,2.08
2019-01-11T03:39:20.023Z,2.05
2019-01-11T03:41:21.490Z,1.99
2019-01-11T03:43:22.942Z,1.93
2019-01-11T03:45:24.629Z,1.92
2019-01-11T03:47:26.102Z,1.87
2019-01-11T03:49:27.650Z,1.89
2019-01-11T03:51:29.045Z,1.92
2019-01-11T03:53:30.478Z,1.84
2019-01-11T03:55:31.864Z,1.95
2019-01-11T03:57:33.253Z,1.94
2019-01-11T03:59:34.671Z,2.03
2019-01-11T04:01:36.061Z,1.94
2019-01-11T04:03:37.442Z,1.84
2019-01-11T04:05:38.875Z,1.77
2019-01-11T04:07:40.266Z,1.71
2019-01-11T04:09:41.631Z,1.78
2019-01-11T04:11:43.231Z,1.78
2019-01-11T04:13:44.621Z,1.85
2019-01-11T04:15:46.005Z,1.78
2019-01-11T04:17:53.411Z,1.85
2019-01-11T04:20:01.720Z,1.83
2019-01-11T04:22:08.806Z,1.82
2019-01-11T04:24:10.504Z,1.86
2019-01-11T04:26:11.893Z,1.68
2019-01-11T04:28:13.389Z,1.85
2019-01-11T04:30:15.973Z,1.88
2019-01-11T04:32:17.358Z,1.88
2019-01-11T04:34:19.031Z,1.81
2019-01-11T04:36:20.471Z,1.86
2019-01-11T04:38:21.901Z,1.82
2019-01-11T04:40:23.321Z,1.84
2019-01-11T04:42:24.789Z,1.82
2019-01-11T04:44:26.263Z,1.80
2019-01-11T04:46:27.646Z,1.68
2019-01-11T04:48:29.625Z,1.80
2019-01-11T04:50:31.125Z,1.67
2019-01-11T04:52:32.500Z,1.70
2019-01-11T04:54:33.927Z,1.73
2019-01-11T04:56:35.318Z,1.72
2019-01-11T04:58:36.708Z,1.76
2019-01-11T05:00:38.397Z,1.77
2019-01-11T05:02:39.785Z,1.81
2019-01-11T05:04:41.214Z,1.77
2019-01-11T05:06:42.627Z,1.73
2019-01-11T05:08:44.021Z,1.75
2019-01-11T05:10:45.441Z,1.70
2019-01-11T05:12:47.047Z,1.75
2019-01-11T05:14:48.553Z,1.77
2019-01-11T05:16:49.943Z,1.75
2019-01-11T05:18:51.337Z,1.70
2019-01-11T05:20:52.712Z,1.71
2019-01-11T05:22:54.098Z,1.67
2019-01-11T05:24:55.515Z,1.86
2019-01-11T05:26:56.893Z,1.75
2019-01-11T05:28:58.269Z,1.76
2019-01-11T05:30:59.772Z,1.72
2019-01-11T05:33:01.177Z,1.75
2019-01-11T05:35:04.859Z,1.82
2019-01-11T05:37:06.373Z,1.74
2019-01-11T05:39:07.765Z,1.75
2019-01-11T05:41:09.186Z,1.79
2019-01-11T05:43:10.567Z,1.77
2019-01-11T05:45:12.162Z,1.83
2019-01-11T05:47:15.632Z,1.80
2019-01-11T05:49:17.005Z,1.81
2019-01-11T05:51:18.459Z,1.79
2019-01-11T05:53:20.086Z,1.80
2019-01-11T05:55:23.630Z,1.79
2019-01-11T05:57:25.032Z,1.75
2019-01-11T05:59:26.401Z,1.75
2019-01-11T06:01:27.958Z,1.76
2019-01-11T06:03:29.374Z,1.72
2019-01-11T06:05:30.767Z,1.67
2019-01-11T06:07:32.282Z,1.84
2019-01-11T06:09:33.649Z,1.78
2019-01-11T06:11:35.037Z,1.79
2019-01-11T06:13:36.471Z,1.81
2019-01-11T06:15:38.199Z,1.80
2019-01-11T06:17:39.676Z,1.82
2019-01-11T06:19:41.090Z,1.75
2019-01-11T06:21:42.492Z,1.81
2019-01-11T06:23:43.912Z,1.79
2019-01-11T06:25:45.436Z,1.79
2019-01-11T06:27:46.884Z,1.90
2019-01-11T06:29:48.564Z,1.89
2019-01-11T06:31:49.934Z,1.78
2019-01-11T06:33:51.332Z,1.75
2019-01-11T06:35:52.846Z,1.90
2019-01-11T06:37:54.263Z,1.85
2019-01-11T06:39:55.697Z,1.90
2019-01-11T06:41:58.982Z,1.79
2019-01-11T06:44:00.356Z,1.84
2019-01-11T06:46:01.783Z,1.86
2019-01-11T06:48:06.070Z,1.91
2019-01-11T06:50:12.638Z,1.93
2019-01-11T06:52:14.254Z,1.76
2019-01-11T06:54:15.650Z,1.72
2019-01-11T06:56:17.128Z,1.78
2019-01-11T06:58:18.644Z,1.81
2019-01-11T07:00:20.126Z,1.82
2019-01-11T07:02:22.432Z,1.84
2019-01-11T07:04:23.903Z,1.73
2019-01-11T07:06:25.338Z,1.80
2019-01-11T07:08:27.022Z,1.79
2019-01-11T07:10:28.403Z,1.75
2019-01-11T07:12:29.799Z,1.82
2019-01-11T07:14:31.200Z,1.75
2019-01-11T07:16:32.571Z,1.80
2019-01-11T07:18:33.974Z,1.78
2019-01-11T07:20:35.344Z,1.78
2019-01-11T07:22:36.727Z,1.79
2019-01-11T07:24:38.140Z,1.89
2019-01-11T07:26:39.501Z,1.80
2019-01-11T07:28:40.873Z,1.86
2019-01-11T07:30:44.198Z,1.78
2019-01-11T07:32:45.586Z,1.77
2019-01-11T07:34:46.973Z,1.78
2019-01-11T07:36:48.377Z,1.90
2019-01-11T07:38:49.763Z,1.86
2019-01-11T07:40:51.127Z,1.78
2019-01-11T07:42:52.549Z,1.78
2019-01-11T07:44:53.925Z,1.86
2019-01-11T07:46:55.807Z,1.80
2019-01-11T07:48:57.217Z,1.83
2019-01-11T07:50:58.569Z,1.76
2019-01-11T07:52:59.957Z,1.72
2019-01-11T07:55:01.464Z,1.81
2019-01-11T07:57:03.055Z,1.80
2019-01-11T07:59:04.581Z,1.78
2019-01-11T08:01:06.494Z,1.81
2019-01-11T08:03:07.859Z,1.88
2019-01-11T08:05:09.469Z,1.89
2019-01-11T08:07:10.824Z,1.88
2019-01-11T08:09:12.314Z,1.94
2019-01-11T08:11:13.925Z,1.97
2019-01-11T08:13:15.314Z,2.04
2019-01-11T08:15:17.094Z,1.94
2019-01-11T08:17:18.743Z,2.03
2019-01-11T08:19:20.125Z,1.93
2019-01-11T08:21:21.508Z,1.95
2019-01-11T08:23:22.929Z,1.95
2019-01-11T08:25:24.313Z,1.96
2019-01-11T08:27:25.801Z,1.98
2019-01-11T08:29:27.231Z,2.01
2019-01-11T08:31:34.558Z,2.05
2019-01-11T08:33:32.110Z,1.92
2019-01-11T08:35:33.488Z,1.94
2019-01-11T08:37:35.026Z,1.97
2019-01-11T08:39:36.409Z,2.10
2019-01-11T08:41:37.822Z,2.05
2019-01-11T08:43:39.405Z,2.03
2019-01-11T08:45:40.825Z,2.02
2019-01-11T08:47:42.196Z,2.01
2019-01-11T08:49:43.584Z,2.07
2019-01-11T08:51:45.018Z,2.07
2019-01-11T08:53:46.395Z,1.99
2019-01-11T08:55:47.778Z,1.99
2019-01-11T08:57:49.199Z,2.09
2019-01-11T08:59:50.610Z,2.04
2019-01-11T09:01:51.990Z,2.08
2019-01-11T09:03:53.423Z,2.17
2019-01-11T09:05:54.795Z,2.12
2019-01-11T09:07:56.208Z,2.14
2019-01-11T09:09:57.854Z,2.10
2019-01-11T09:11:59.229Z,2.12
2019-01-11T09:14:00.928Z,2.10
2019-01-11T09:16:03.125Z,2.18
2019-01-11T09:18:12.039Z,2.14
2019-01-11T09:20:13.551Z,2.12
2019-01-11T09:22:15.204Z,2.18
2019-01-11T09:24:16.582Z,2.14
2019-01-11T09:26:17.977Z,2.17
2019-01-11T09:28:19.394Z,2.26
2019-01-11T09:30:20.777Z,2.14
2019-01-11T09:32:22.745Z,2.20
2019-01-11T09:34:24.185Z,2.24
2019-01-11T09:36:25.578Z,2.27
2019-01-11T09:38:27.001Z,2.25
2019-01-11T09:40:28.454Z,2.12
2019-01-11T09:42:29.869Z,2.24
2019-01-11T09:44:31.234Z,2.13
2019-01-11T09:46:32.650Z,2.14
2019-01-11T09:48:34.016Z,2.23
2019-01-11T09:50:35.408Z,2.23
2019-01-11T09:52:36.816Z,2.19
2019-01-11T09:54:38.214Z,2.22
2019-01-11T09:56:39.611Z,2.20
2019-01-11T09:58:41.003Z,2.22
2019-01-11T10:00:43.122Z,2.26
2019-01-11T10:02:46.047Z,2.27
2019-01-11T10:04:47.426Z,2.23
2019-01-11T10:06:53.365Z,2.27
2019-01-11T10:08:54.785Z,2.33
2019-01-11T10:10:56.163Z,2.29
2019-01-11T10:12:57.534Z,2.25
2019-01-11T10:14:58.947Z,2.29
2019-01-11T10:17:00.368Z,2.37
2019-01-11T10:19:01.754Z,2.39
2019-01-11T10:21:03.334Z,2.36
2019-01-11T10:23:04.942Z,2.42
2019-01-11T10:25:10.087Z,2.35
2019-01-11T10:27:11.495Z,2.38
2019-01-11T10:29:12.871Z,2.46
2019-01-11T10:31:14.252Z,2.46
2019-01-11T10:33:15.655Z,2.49
2019-01-11T10:35:17.028Z,2.42
2019-01-11T10:37:18.422Z,2.42
2019-01-11T10:39:20.094Z,2.48
2019-01-11T10:41:21.470Z,2.52
2019-01-11T10:43:22.969Z,2.54
2019-01-11T10:45:24.350Z,2.57
2019-01-11T10:47:25.731Z,2.59
2019-01-11T10:49:27.136Z,2.52
2019-01-11T10:51:28.554Z,2.52
2019-01-11T10:53:29.956Z,2.61
2019-01-11T10:55:31.321Z,2.54
2019-01-11T10:57:32.746Z,2.67
2019-01-11T10:59:34.208Z,2.62
2019-01-11T11:01:35.697Z,2.65
2019-01-11T11:03:37.302Z,2.66
2019-01-11T11:05:38.681Z,2.59
2019-01-11T11:07:40.065Z,2.70
2019-01-11T11:09:41.492Z,2.76
2019-01-11T11:11:42.869Z,2.75
2019-01-11T11:13:44.758Z,2.79
2019-01-11T11:15:47.580Z,2.81
2019-01-11T11:17:48.963Z,2.80
2019-01-11T11:19:50.324Z,2.75
2019-01-11T11:21:51.737Z,2.71
2019-01-11T11:23:54.152Z,2.78
2019-01-11T11:25:55.604Z,2.87
2019-01-11T11:27:57.254Z,2.91
2019-01-11T11:29:58.635Z,2.93
2019-01-11T11:32:00.037Z,2.93
2019-01-11T11:34:01.460Z,3.00
2019-01-11T11:36:03.553Z,3.01
2019-01-11T11:38:05.031Z,3.06
2019-01-11T11:40:08.095Z,3.08
2019-01-11T11:42:09.498Z,3.10
2019-01-11T11:44:10.999Z,3.06
2019-01-11T11:46:12.526Z,3.08
2019-01-11T11:48:13.954Z,3.10
2019-01-11T11:50:15.379Z,3.14
2019-01-11T11:52:16.797Z,3.10
2019-01-11T11:54:18.193Z,3.13
2019-01-11T11:56:19.970Z,3.23
2019-01-11T11:58:21.375Z,3.22
2019-01-11T12:00:23.760Z,3.24
2019-01-11T12:02:25.153Z,3.17
2019-01-11T12:04:26.627Z,3.27
2019-01-11T12:06:28.001Z,3.26
2019-01-11T12:08:29.401Z,3.29
2019-01-11T12:10:30.835Z,3.26
2019-01-11T12:12:32.254Z,3.34
2019-01-11T12:14:33.654Z,3.32
2019-01-11T12:16:35.056Z,3.34
2019-01-11T12:18:36.439Z,3.31
2019-01-11T12:20:37.923Z,3.32
2019-01-11T12:22:39.951Z,3.37
2019-01-11T12:24:41.457Z,3.38
2019-01-11T12:26:43.088Z,3.37
2019-01-11T12:28:44.472Z,3.41
2019-01-11T12:30:45.860Z,3.41
2019-01-11T12:32:47.332Z,3.44
2019-01-11T12:34:48.821Z,3.46
2019-01-11T12:36:50.196Z,3.46
2019-01-11T12:38:51.619Z,3.45
2019-01-11T12:40:52.999Z,3.50
2019-01-11T12:42:54.389Z,3.54
2019-01-11T12:44:55.963Z,3.56
2019-01-11T12:46:57.356Z,3.60
2019-01-11T12:48:58.735Z,3.64
2019-01-11T12:51:00.183Z,3.67
2019-01-11T12:53:01.575Z,3.72
2019-01-11T12:55:04.063Z,3.74
2019-01-11T12:57:05.518Z,3.72
2019-01-11T12:59:06.902Z,3.77
2019-01-11T13:01:08.396Z,3.83
2019-01-11T13:03:09.907Z,3.83
2019-01-11T13:05:17.186Z,3.87
2019-01-11T13:07:18.604Z,3.88
2019-01-11T13:09:20.154Z,3.88
2019-01-11T13:11:21.543Z,3.90
2019-01-11T13:13:22.931Z,3.92
2019-01-11T13:15:24.359Z,3.95
2019-01-11T13:17:25.764Z,3.96
2019-01-11T13:19:27.159Z,3.98
2019-01-11T13:21:28.682Z,4.03
2019-01-11T13:23:30.110Z,4.05
2019-01-11T13:25:32.245Z,4.08
2019-01-11T13:27:33.903Z,4.13
2019-01-11T13:29:35.337Z,4.21
2019-01-11T13:31:36.793Z,4.24
2019-01-11T13:33:38.167Z,4.29
2019-01-11T13:35:39.557Z,4.32
2019-01-11T13:37:41.323Z,4.33
2019-01-11T13:39:42.725Z,4.36
2019-01-11T13:41:44.098Z,4.39
2019-01-11T13:43:45.741Z,4.39
2019-01-11T13:45:47.226Z,4.41
2019-01-11T13:47:48.602Z,4.43
2019-01-11T13:49:50.048Z,4.47
2019-01-11T13:51:51.440Z,4.45
2019-01-11T13:53:52.825Z,4.50
2019-01-11T13:55:54.237Z,4.53
2019-01-11T13:57:55.621Z,4.58
2019-01-11T13:59:57.071Z,4.58
2019-01-11T14:01:58.451Z,4.57
2019-01-11T14:03:59.855Z,4.62
2019-01-11T14:06:01.324Z,4.65
2019-01-11T14:08:02.916Z,4.66
2019-01-11T14:10:05.325Z,4.68
2019-01-11T14:12:06.756Z,4.70
2019-01-11T14:14:08.143Z,4.70
2019-01-11T14:16:09.609Z,4.74
2019-01-11T14:18:11.123Z,4.78
2019-01-11T14:20:12.703Z,4.83
2019-01-11T14:22:14.165Z,4.86
2019-01-11T14:24:15.542Z,4.89
2019-01-11T14:26:16.919Z,4.90
2019-01-11T14:28:18.381Z,4.89
2019-01-11T14:30:20.213Z,4.89
2019-01-11T14:32:21.601Z,4.94
2019-01-11T14:34:22.970Z,4.92
2019-01-11T14:36:24.735Z,4.94
2019-01-11T14:38:26.166Z,4.93
2019-01-11T14:40:29.453Z,4.93
2019-01-11T14:42:31.293Z,4.95
2019-01-11T14:44:32.667Z,4.94
2019-01-11T14:46:34.037Z,4.95
2019-01-11T14:48:35.490Z,4.96
2019-01-11T14:50:36.892Z,4.99
2019-01-11T14:52:38.335Z,5.00
2019-01-11T14:54:39.713Z,4.99
2019-01-11T14:56:41.199Z,5.00
2019-01-11T14:58:42.648Z,5.02
2019-01-11T15:00:44.044Z,5.06
2019-01-11T15:02:45.469Z,5.05
2019-01-11T15:04:47.190Z,5.03
2019-01-11T15:06:48.625Z,5.05
2019-01-11T15:08:50.005Z,5.07
2019-01-11T15:10:51.455Z,5.08
2019-01-11T15:12:52.824Z,5.10
2019-01-11T15:14:54.189Z,5.14
2019-01-11T15:16:55.841Z,5.15
2019-01-11T15:18:57.228Z,5.17
2019-01-11T15:20:58.620Z,5.21
2019-01-11T15:23:00.055Z,5.23
2019-01-11T15:25:01.453Z,5.22
2019-01-11T15:27:03.043Z,5.22
2019-01-11T15:29:04.696Z,5.27
2019-01-11T15:31:06.105Z,5.31
2019-01-11T15:33:07.864Z,5.30
2019-01-11T15:35:09.539Z,5.35
2019-01-11T15:37:11.205Z,5.36
2019-01-11T15:39:13.074Z,5.44
2019-01-11T15:41:14.695Z,5.46
2019-01-11T15:43:16.248Z,5.43
2019-01-11T15:45:17.946Z,5.45
2019-01-11T15:47:19.617Z,5.46
2019-01-11T15:49:21.229Z,5.45
2019-01-11T15:51:23.117Z,5.50
2019-01-11T15:53:32.642Z,5.52
2019-01-11T15:55:34.371Z,5.56
2019-01-11T15:57:41.862Z,5.53
2019-01-11T16:00:01.422Z,5.55
2019-01-11T16:02:03.109Z,5.56
2019-01-11T16:04:05.227Z,5.55
2019-01-11T16:06:28.010Z,5.60
2019-01-11T16:08:29.509Z,5.66
2019-01-11T16:10:31.616Z,5.63
2019-01-11T16:12:33.192Z,5.64
2019-01-11T16:15:07.229Z,5.65
2019-01-11T16:17:14.448Z,5.70
2019-01-11T16:19:16.274Z,5.73
2019-01-11T16:21:18.689Z,5.74
2019-01-11T16:23:20.291Z,5.76
2019-01-11T16:25:21.678Z,5.75
2019-01-11T16:27:23.072Z,5.74
2019-01-11T16:29:24.955Z,5.79
2019-01-11T16:31:26.389Z,5.80
2019-01-11T16:33:27.830Z,5.83
2019-01-11T16:35:29.567Z,5.86
2019-01-11T16:37:30.965Z,5.82
2019-01-11T16:39:32.337Z,5.89
2019-01-11T16:41:33.966Z,5.90
2019-01-11T16:43:35.365Z,5.94
2019-01-11T16:45:36.848Z,5.94
2019-01-11T16:47:38.306Z,5.95
2019-01-11T16:49:39.706Z,5.97
2019-01-11T16:51:41.202Z,5.97
2019-01-11T16:53:42.658Z,5.98
2019-01-11T16:55:44.060Z,6.02
2019-01-11T16:57:45.449Z,6.03
2019-01-11T16:59:46.897Z,6.01
2019-01-11T17:01:48.286Z,6.05
2019-01-11T17:03:49.689Z,6.05
2019-01-11T17:05:51.131Z,6.06
2019-01-11T17:07:52.522Z,6.10
2019-01-11T17:09:53.908Z,6.16
2019-01-11T17:11:55.379Z,6.15
2019-01-11T17:13:56.762Z,6.18
2019-01-11T17:15:58.234Z,6.20
2019-01-11T17:17:59.680Z,6.22
2019-01-11T17:20:01.142Z,6.28
2019-01-11T17:22:02.706Z,6.28
2019-01-11T17:24:04.074Z,6.31
2019-01-11T17:26:05.624Z,6.29
2019-01-11T17:28:07.016Z,6.30
2019-01-11T17:30:13.625Z,6.33
2019-01-11T17:32:15.024Z,6.36
2019-01-11T17:34:16.482Z,6.39
2019-01-11T17:36:18.100Z,6.38
2019-01-11T17:38:19.578Z,6.43
2019-01-11T17:40:20.964Z,6.49
2019-01-11T17:42:22.409Z,6.51
2019-01-11T17:44:23.857Z,6.56
2019-01-11T17:46:25.259Z,6.58
2019-01-11T17:48:26.709Z,6.60
2019-01-11T17:50:28.306Z,6.62
2019-01-11T17:52:29.657Z,6.62
2019-01-11T17:54:31.059Z,6.67
2019-01-11T17:56:32.649Z,6.70
2019-01-11T17:58:34.037Z,6.73
2019-01-11T18:00:35.710Z,6.72
2019-01-11T18:02:37.148Z,6.78
2019-01-11T18:04:38.536Z,6.79
2019-01-11T18:06:39.992Z,6.81
2019-01-11T18:08:41.377Z,6.87
2019-01-11T18:10:42.773Z,6.90
2019-01-11T18:12:44.213Z,6.95
2019-01-11T18:14:45.604Z,6.95
2019-01-11T18:16:47.068Z,7.03
2019-01-11T18:18:48.520Z,6.98
2019-01-11T18:20:49.881Z,7.04
2019-01-11T18:22:51.465Z,7.08
2019-01-11T18:24:52.903Z,7.11
2019-01-11T18:26:54.287Z,7.16
2019-01-11T18:28:55.662Z,7.18
2019-01-11T18:30:57.098Z,7.13
2019-01-11T18:32:58.481Z,7.07
2019-01-11T18:34:59.900Z,7.10
2019-01-11T18:37:01.720Z,7.14
2019-01-11T18:39:06.183Z,7.10
2019-01-11T18:41:07.575Z,7.17
2019-01-11T18:43:09.035Z,7.18
2019-01-11T18:45:10.714Z,7.15
2019-01-11T18:47:12.067Z,7.23
2019-01-11T18:49:13.678Z,7.19
2019-01-11T18:51:15.018Z,7.19
2019-01-11T18:53:16.435Z,7.20
2019-01-11T18:55:18.097Z,7.22
2019-01-11T18:57:19.586Z,7.19
2019-01-11T18:59:21.022Z,7.08
2019-01-11T19:01:22.395Z,7.21
2019-01-11T19:03:23.861Z,7.11
2019-01-11T19:05:27.856Z,7.16
2019-01-11T19:07:29.292Z,7.16
2019-01-11T19:09:30.815Z,7.13
2019-01-11T19:11:32.174Z,7.10
2019-01-11T19:13:33.619Z,7.20
2019-01-11T19:15:35.315Z,7.15
2019-01-11T19:17:36.787Z,7.16
2019-01-11T19:19:38.184Z,7.17
2019-01-11T19:21:39.872Z,7.16
2019-01-11T19:23:41.228Z,7.11
2019-01-11T19:25:42.612Z,7.13
2019-01-11T19:27:44.639Z,7.14
2019-01-11T19:29:45.997Z,7.13
2019-01-11T19:31:47.402Z,7.10
2019-01-11T19:33:48.856Z,7.10
2019-01-11T19:35:50.556Z,7.14
2019-01-11T19:37:52.021Z,7.15
2019-01-11T19:39:53.419Z,7.12
2019-01-11T19:41:54.878Z,7.15
2019-01-11T19:43:56.256Z,7.11
2019-01-11T19:45:57.636Z,7.12
2019-01-11T19:47:59.136Z,7.10
2019-01-11T19:50:00.512Z,7.10
2019-01-11T19:52:02.122Z,7.11
2019-01-11T19:54:03.869Z,7.18
2019-01-11T19:56:05.273Z,7.11
2019-01-11T19:58:06.665Z,7.11
2019-01-11T20:00:15.887Z,7.11
2019-01-11T20:02:17.261Z,7.14
2019-01-11T20:04:18.945Z,7.10
2019-01-11T20:06:20.331Z,7.12
2019-01-11T20:08:21.901Z,7.10
2019-01-11T20:10:29.438Z,7.04
2019-01-11T20:12:30.894Z,7.01
2019-01-11T20:14:32.538Z,7.10
2019-01-11T20:16:34.135Z,7.06
2019-01-11T20:18:35.524Z,7.03
2019-01-11T20:20:36.922Z,7.00
2019-01-11T20:22:38.649Z,6.99
2019-01-11T20:24:40.625Z,6.98
2019-01-11T20:26:42.005Z,6.96
2019-01-11T20:28:43.429Z,6.98
2019-01-11T20:30:44.863Z,6.93
2019-01-11T20:32:46.363Z,6.91
2019-01-11T20:34:47.811Z,6.95
2019-01-11T20:36:54.995Z,6.93
2019-01-11T20:38:56.458Z,6.90
2019-01-11T20:40:58.126Z,6.93
2019-01-11T20:42:59.502Z,6.94
2019-01-11T20:45:00.909Z,6.95
2019-01-11T20:47:02.675Z,6.91
2019-01-11T20:49:04.053Z,6.90
2019-01-11T20:51:05.491Z,6.86
2019-01-11T20:53:07.135Z,6.86
2019-01-11T20:55:09.515Z,6.87
2019-01-11T20:57:10.922Z,6.87
2019-01-11T20:59:12.518Z,6.83
2019-01-11T21:01:14.399Z,6.83
2019-01-11T21:03:15.989Z,6.80
2019-01-11T21:05:17.876Z,6.78
2019-01-11T21:07:19.254Z,6.82
2019-01-11T21:09:20.630Z,6.87
2019-01-11T21:11:22.084Z,6.83
2019-01-11T21:13:23.612Z,6.82
2019-01-11T21:15:25.378Z,6.81
2019-01-11T21:17:26.762Z,6.77
2019-01-11T21:19:28.463Z,6.80
2019-01-11T21:21:29.951Z,6.84
2019-01-11T21:23:31.336Z,6.83
2019-01-11T21:25:32.779Z,6.79
2019-01-11T21:27:34.258Z,6.79
2019-01-11T21:29:35.703Z,6.85
2019-01-11T21:31:37.093Z,6.79
2019-01-11T21:33:38.477Z,6.81
2019-01-11T21:35:40.180Z,6.85
2019-01-11T21:37:41.675Z,6.84
2019-01-11T21:39:43.049Z,6.84
2019-01-11T21:41:44.498Z,6.82
2019-01-11T21:43:45.880Z,6.76
2019-01-11T21:45:47.264Z,6.82
2019-01-11T21:47:48.692Z,6.82
2019-01-11T21:49:50.063Z,6.78
2019-01-11T21:51:51.435Z,6.78
2019-01-11T21:53:55.832Z,6.79
2019-01-11T21:55:56.138Z,6.79
2019-01-11T21:57:57.540Z,6.81
2019-01-11T21:59:58.969Z,6.82
2019-01-11T22:02:00.357Z,6.79
2019-01-11T22:04:01.746Z,6.80
2019-01-11T22:06:03.581Z,6.77
2019-01-11T22:08:05.069Z,6.82
2019-01-11T22:10:11.661Z,6.83
2019-01-11T22:12:13.121Z,6.84
2019-01-11T22:14:14.556Z,6.83
2019-01-11T22:16:15.939Z,6.77
2019-01-11T22:18:17.400Z,6.78
2019-01-11T22:20:18.876Z,6.79
2019-01-11T22:22:20.305Z,6.78
2019-01-11T22:24:21.751Z,6.79
2019-01-11T22:26:23.347Z,6.83
2019-01-11T22:28:24.725Z,6.84
2019-01-11T22:30:30.155Z,6.84
2019-01-11T22:32:29.745Z,6.78
2019-01-11T22:34:31.132Z,6.82
2019-01-11T22:36:32.514Z,6.86
2019-01-11T22:38:33.959Z,6.84
2019-01-11T22:40:35.336Z,6.82
2019-01-11T22:42:36.731Z,6.83
2019-01-11T22:44:38.406Z,6.78
2019-01-11T22:46:39.824Z,6.78
2019-01-11T22:48:41.213Z,6.77
2019-01-11T22:50:42.655Z,6.85
2019-01-11T22:52:44.266Z,6.85
2019-01-11T22:54:45.661Z,6.84
2019-01-11T22:56:47.121Z,6.79
2019-01-11T22:58:48.810Z,6.81
2019-01-11T23:01:10.997Z,6.84
2019-01-11T23:03:26.630Z,6.85
2019-01-11T23:05:28.014Z,6.79
2019-01-11T23:07:31.903Z,6.73
2019-01-11T23:09:38.329Z,6.82
2019-01-11T23:12:03.518Z,6.80
2019-01-11T23:14:05.456Z,6.79
2019-01-11T23:16:11.254Z,6.78
2019-01-11T23:18:12.614Z,6.76
2019-01-11T23:20:14.159Z,6.83
2019-01-11T23:22:15.540Z,6.78
2019-01-11T23:24:17.560Z,6.82
2019-01-11T23:26:19.214Z,6.75
2019-01-11T23:28:20.652Z,6.84
2019-01-11T23:30:22.076Z,6.87
2019-01-11T23:32:23.448Z,6.90
2019-01-11T23:34:24.864Z,6.83
2019-01-11T23:36:26.266Z,6.81
2019-01-11T23:38:27.653Z,6.79
2019-01-11T23:40:29.059Z,6.84
2019-01-11T23:42:30.477Z,6.79
2019-01-11T23:44:31.858Z,6.77
2019-01-11T23:46:33.298Z,6.77
2019-01-11T23:48:34.701Z,6.78
2019-01-11T23:50:36.096Z,6.74
2019-01-11T23:52:37.470Z,6.75
2019-01-11T23:54:38.867Z,6.77
2019-01-11T23:56:40.250Z,6.78
2019-01-11T23:58:41.635Z,6.79
